createdAt,value
2022-11-13T00:02:51.451Z,9.32
2022-11-13T00:05:39.451Z,9.34
2022-11-13T00:08:26.450Z,9.37
2022-11-13T00:11:20.618Z,9.37
2022-11-13T00:14:10.205Z,9.37
2022-11-13T00:16:56.861Z,9.37
2022-11-13T00:19:49.749Z,9.39
2022-11-13T00:22:39.466Z,9.40
2022-11-13T00:25:29.304Z,9.39
2022-11-13T00:28:16.720Z,9.38
2022-11-13T00:31:12.183Z,9.39
2022-11-13T00:37:07.626Z,9.40
2022-11-13T00:39:59.422Z,9.38
2022-11-13T00:42:46.550Z,9.38
2022-11-13T00:45:33.326Z,9.40
2022-11-13T00:48:20.828Z,9.40
2022-11-13T00:51:07.618Z,9.41
2022-11-13T00:53:54.370Z,9.40
2022-11-13T00:56:40.924Z,9.39
2022-11-13T00:59:27.495Z,9.36
2022-11-13T01:02:15.425Z,9.35
2022-11-13T01:05:03.263Z,9.34
2022-11-13T01:07:52.000Z,9.36
2022-11-13T01:10:52.092Z,9.38
2022-11-13T01:13:41.943Z,9.40
2022-11-13T01:16:29.534Z,9.38
2022-11-13T01:19:18.394Z,9.36
2022-11-13T01:22:04.797Z,9.37
2022-11-13T01:24:52.064Z,9.38
2022-11-13T01:27:39.567Z,9.37
2022-11-13T01:30:26.197Z,9.36
2022-11-13T01:33:12.782Z,9.34
2022-11-13T01:36:02.843Z,9.34
2022-11-13T01:39:15.402Z,9.33
2022-11-13T01:42:05.091Z,9.33
2022-11-13T01:45:02.088Z,9.32
2022-11-13T01:47:49.010Z,9.32
2022-11-13T01:50:35.701Z,9.33
2022-11-13T01:53:24.524Z,9.34
2022-11-13T01:56:12.612Z,9.35
2022-11-13T01:59:07.046Z,9.35
2022-11-13T02:01:54.603Z,9.34
2022-11-13T02:04:41.612Z,9.33
2022-11-13T02:07:29.461Z,9.29
2022-11-13T02:10:16.910Z,9.25
2022-11-13T02:13:04.638Z,9.23
2022-11-13T02:15:54.078Z,9.22
2022-11-13T02:18:43.159Z,9.21
2022-11-13T02:21:46.437Z,9.20
2022-11-13T02:24:40.172Z,9.15
2022-11-13T02:27:50.631Z,9.12
2022-11-13T02:30:40.075Z,9.12
2022-11-13T02:33:28.139Z,9.12
2022-11-13T02:36:16.677Z,9.11
2022-11-13T02:39:23.546Z,9.10
2022-11-13T02:42:11.899Z,9.08
2022-11-13T02:44:58.552Z,9.06
2022-11-13T02:47:45.654Z,9.05
2022-11-13T02:50:33.226Z,9.03
2022-11-13T02:53:20.275Z,9.01
2022-11-13T02:56:07.124Z,8.98
2022-11-13T02:58:53.898Z,8.94
2022-11-13T03:01:40.672Z,8.92
2022-11-13T03:04:44.000Z,8.88
2022-11-13T03:07:35.116Z,8.83
2022-11-13T03:10:21.940Z,8.80
2022-11-13T03:13:08.236Z,8.76
2022-11-13T03:15:54.734Z,8.74
2022-11-13T03:18:41.876Z,8.73
2022-11-13T03:21:28.748Z,8.75
2022-11-13T03:24:15.919Z,8.76
2022-11-13T03:27:02.606Z,8.76
2022-11-13T03:29:49.465Z,8.74
2022-11-13T03:32:38.487Z,8.72
2022-11-13T03:35:30.467Z,8.73
2022-11-13T03:38:18.019Z,8.74
2022-11-13T03:41:05.257Z,8.72
2022-11-13T03:43:51.751Z,8.70
2022-11-13T03:46:38.647Z,8.69
2022-11-13T03:49:25.985Z,8.69
2022-11-13T03:52:13.789Z,8.67
2022-11-13T03:55:00.727Z,8.63
2022-11-13T03:57:50.530Z,8.59
2022-11-13T04:00:42.284Z,8.57
2022-11-13T04:03:30.740Z,8.54
2022-11-13T04:06:19.335Z,8.51
2022-11-13T04:09:07.673Z,8.49
2022-11-13T04:11:54.312Z,8.47
2022-11-13T04:14:41.974Z,8.46
2022-11-13T04:17:29.223Z,8.44
2022-11-13T04:20:16.271Z,8.41
2022-11-13T04:23:07.984Z,8.40
2022-11-13T04:25:55.808Z,8.38
2022-11-13T04:28:45.679Z,8.35
2022-11-13T04:31:32.360Z,8.32
2022-11-13T04:34:20.363Z,8.32
2022-11-13T04:37:08.253Z,8.33
2022-11-13T04:39:55.181Z,8.33
2022-11-13T04:42:51.052Z,8.32
2022-11-13T04:45:39.041Z,8.31
2022-11-13T04:48:27.835Z,8.32
2022-11-13T04:51:14.913Z,8.33
2022-11-13T04:54:02.442Z,8.30
2022-11-13T04:56:49.072Z,8.27
2022-11-13T04:59:35.958Z,8.25
2022-11-13T05:02:22.912Z,8.23
2022-11-13T05:05:09.391Z,8.23
2022-11-13T05:07:56.086Z,8.22
2022-11-13T05:10:44.604Z,8.21
2022-11-13T05:13:35.585Z,8.20
2022-11-13T05:16:22.647Z,8.18
2022-11-13T05:19:10.503Z,8.17
2022-11-13T05:21:57.918Z,8.15
2022-11-13T05:24:44.899Z,8.13
2022-11-13T05:27:32.013Z,8.13
2022-11-13T05:30:18.767Z,8.12
2022-11-13T05:33:05.304Z,8.10
2022-11-13T05:35:54.521Z,8.07
2022-11-13T05:38:58.497Z,8.06
2022-11-13T05:41:45.233Z,8.05
2022-11-13T05:47:41.806Z,7.97
2022-11-13T05:50:29.066Z,7.93
2022-11-13T05:56:45.618Z,7.89
2022-11-13T05:59:34.539Z,7.82
2022-11-13T06:02:23.357Z,7.76
2022-11-13T06:05:10.159Z,7.71
2022-11-13T06:08:05.276Z,7.67
2022-11-13T06:15:53.747Z,7.47
2022-11-13T06:18:46.142Z,7.41
2022-11-13T06:21:37.733Z,7.36
2022-11-13T06:24:24.687Z,7.28
2022-11-13T06:27:11.604Z,7.21
2022-11-13T06:30:04.997Z,7.14
2022-11-13T06:33:18.350Z,7.07
2022-11-13T06:36:10.648Z,6.99
2022-11-13T06:38:58.948Z,6.93
2022-11-13T06:41:46.162Z,6.85
2022-11-13T06:44:34.144Z,6.78
2022-11-13T06:47:23.494Z,6.74
2022-11-13T06:50:10.455Z,6.76
2022-11-13T06:52:58.389Z,6.76
2022-11-13T06:56:14.041Z,6.73
2022-11-13T06:59:00.974Z,6.69
2022-11-13T07:01:52.708Z,6.70
2022-11-13T07:05:08.215Z,6.77
2022-11-13T07:07:56.244Z,6.86
2022-11-13T07:10:44.483Z,6.96
2022-11-13T07:13:34.636Z,7.06
2022-11-13T07:16:23.489Z,7.13
2022-11-13T07:19:10.627Z,7.20
2022-11-13T07:21:58.508Z,7.25
2022-11-13T07:24:46.587Z,7.34
2022-11-13T07:30:37.322Z,7.45
2022-11-13T07:33:33.301Z,7.48
2022-11-13T07:36:34.332Z,7.61
2022-11-13T07:39:26.458Z,7.76
2022-11-13T07:42:14.008Z,7.83
2022-11-13T07:45:07.050Z,7.86
2022-11-13T07:48:03.630Z,7.88
2022-11-13T07:50:52.148Z,7.97
2022-11-13T07:53:40.748Z,8.04
2022-11-13T07:56:40.102Z,8.13
2022-11-13T07:59:32.361Z,8.22
2022-11-13T08:02:28.726Z,8.29
2022-11-13T08:05:30.322Z,8.39
2022-11-13T08:08:18.079Z,8.48
2022-11-13T08:11:07.411Z,8.52
2022-11-13T08:13:54.552Z,8.56
2022-11-13T08:19:56.826Z,8.65
2022-11-13T08:22:44.095Z,8.73
2022-11-13T08:25:37.024Z,8.78
2022-11-13T08:28:38.444Z,8.84
2022-11-13T08:31:27.726Z,8.96
2022-11-13T08:34:15.189Z,8.99
2022-11-13T08:40:04.089Z,8.90
2022-11-13T08:42:54.813Z,8.86
2022-11-13T08:46:27.930Z,8.90
2022-11-13T08:49:30.472Z,8.95
2022-11-13T08:52:19.177Z,8.99
2022-11-13T08:55:10.889Z,9.04
2022-11-13T08:58:05.675Z,9.12
2022-11-13T09:00:53.660Z,9.23
2022-11-13T09:04:07.994Z,9.34
2022-11-13T09:07:03.680Z,9.46
2022-11-13T09:09:54.519Z,9.54
2022-11-13T09:12:44.820Z,9.64
2022-11-13T09:16:01.534Z,9.72
2022-11-13T09:19:03.254Z,9.75
2022-11-13T09:21:57.287Z,9.79
2022-11-13T09:24:46.890Z,9.82
2022-11-13T09:27:34.408Z,9.86
2022-11-13T09:30:20.968Z,9.88
2022-11-13T09:33:08.007Z,9.91
2022-11-13T09:36:33.325Z,9.93
2022-11-13T09:39:24.503Z,9.95
2022-11-13T09:42:22.518Z,9.95
2022-11-13T09:45:14.402Z,9.92
2022-11-13T09:48:37.232Z,9.89
2022-11-13T09:51:39.291Z,9.87
2022-11-13T09:54:43.004Z,9.84
2022-11-13T09:57:57.099Z,9.83
2022-11-13T10:00:44.333Z,9.85
2022-11-13T10:04:03.265Z,9.87
2022-11-13T10:07:11.705Z,9.94
2022-11-13T10:11:20.795Z,10.01
2022-11-13T10:14:46.181Z,10.14
2022-11-13T10:18:28.095Z,10.21
2022-11-13T10:21:47.273Z,10.30
2022-11-13T10:24:49.294Z,10.39
2022-11-13T10:32:57.209Z,10.74
2022-11-13T10:36:14.664Z,10.90
2022-11-13T10:39:09.490Z,10.97
2022-11-13T10:41:59.909Z,11.02
2022-11-13T10:45:00.368Z,11.07
2022-11-13T10:48:03.846Z,11.15
2022-11-13T10:51:07.934Z,11.28
2022-11-13T10:53:56.160Z,11.38
2022-11-13T10:56:51.721Z,11.49
2022-11-13T11:00:26.116Z,11.64
2022-11-13T11:03:22.737Z,11.80
2022-11-13T11:06:10.968Z,11.90
2022-11-13T11:09:16.779Z,11.91
2022-11-13T11:15:59.021Z,12.07
2022-11-13T11:19:00.769Z,12.14
2022-11-13T11:21:54.003Z,12.19
2022-11-13T11:28:36.074Z,12.03
2022-11-13T11:31:35.536Z,11.93
2022-11-13T11:34:26.714Z,11.83
2022-11-13T11:37:39.525Z,11.77
2022-11-13T11:44:17.956Z,11.53
2022-11-13T11:47:15.030Z,11.41
2022-11-13T11:50:05.141Z,11.24
2022-11-13T11:53:14.115Z,11.07
2022-11-13T11:56:25.916Z,10.92
2022-11-13T11:59:23.587Z,10.81
2022-11-13T12:02:31.234Z,10.76
2022-11-13T12:06:16.133Z,10.71
2022-11-13T12:09:21.006Z,10.66
2022-11-13T12:12:36.709Z,10.63
2022-11-13T12:16:11.947Z,10.61
2022-11-13T12:19:11.230Z,10.59
2022-11-13T12:22:39.672Z,10.62
2022-11-13T12:25:42.489Z,10.63
2022-11-13T12:28:42.904Z,10.62
2022-11-13T12:32:28.073Z,10.62
2022-11-13T12:35:21.430Z,10.60
2022-11-13T12:38:09.996Z,10.60
2022-11-13T12:41:08.401Z,10.61
2022-11-13T12:44:07.081Z,10.62
2022-11-13T12:46:57.024Z,10.63
2022-11-13T12:49:45.544Z,10.57
2022-11-13T12:52:33.316Z,10.53
2022-11-13T12:55:31.189Z,10.49
2022-11-13T12:58:30.629Z,10.46
2022-11-13T13:01:21.479Z,10.46
2022-11-13T13:04:57.790Z,10.43
2022-11-13T13:08:15.199Z,10.41
2022-11-13T13:11:31.287Z,10.39
2022-11-13T13:14:45.705Z,10.42
2022-11-13T13:17:33.559Z,10.36
2022-11-13T13:20:21.329Z,10.34
2022-11-13T13:23:15.413Z,10.27
2022-11-13T13:26:18.963Z,10.17
2022-11-13T13:29:27.465Z,10.10
2022-11-13T13:32:37.877Z,10.03
2022-11-13T13:36:01.659Z,9.91
2022-11-13T13:39:19.993Z,9.82
2022-11-13T13:42:26.004Z,9.72
2022-11-13T13:45:48.801Z,9.63
2022-11-13T13:48:49.932Z,9.60
2022-11-13T13:51:55.479Z,9.54
2022-11-13T13:54:45.531Z,9.46
2022-11-13T13:57:32.692Z,9.42
2022-11-13T14:00:29.071Z,9.39
2022-11-13T14:03:21.629Z,9.32
2022-11-13T14:06:25.018Z,9.26
2022-11-13T14:09:21.143Z,9.22
2022-11-13T14:15:32.646Z,9.06
2022-11-13T14:18:22.978Z,9.02
2022-11-13T14:21:31.760Z,8.97
2022-11-13T14:24:34.369Z,8.95
2022-11-13T14:27:29.369Z,8.89
2022-11-13T14:30:28.460Z,8.82
2022-11-13T14:33:22.163Z,8.74
2022-11-13T14:36:09.336Z,8.64
2022-11-13T14:39:02.937Z,8.58
2022-11-13T14:42:04.014Z,8.44
2022-11-13T14:44:52.353Z,8.31
2022-11-13T14:47:39.761Z,8.24
2022-11-13T14:50:32.197Z,8.18
2022-11-13T14:53:54.137Z,8.09
2022-11-13T14:56:44.176Z,7.97
2022-11-13T14:59:37.197Z,7.89
2022-11-13T15:02:27.745Z,7.86
2022-11-13T15:05:25.151Z,7.83
2022-11-13T15:08:34.926Z,7.81
2022-11-13T15:11:24.737Z,7.77
2022-11-13T15:14:18.711Z,7.73
2022-11-13T15:17:33.661Z,7.70
2022-11-13T15:20:24.573Z,7.65
2022-11-13T15:23:19.218Z,7.64
2022-11-13T15:26:06.811Z,7.62
2022-11-13T15:28:53.980Z,7.56
2022-11-13T15:31:45.656Z,7.50
2022-11-13T15:34:34.263Z,7.48
2022-11-13T15:37:26.994Z,7.49
2022-11-13T15:40:18.554Z,7.48
2022-11-13T15:43:21.711Z,7.41
2022-11-13T15:46:41.012Z,7.39
2022-11-13T15:49:30.458Z,7.39
2022-11-13T15:52:22.153Z,7.38
2022-11-13T15:55:30.156Z,7.38
2022-11-13T15:58:17.314Z,7.40
2022-11-13T16:01:07.137Z,7.40
2022-11-13T16:03:59.131Z,7.35
2022-11-13T16:06:50.203Z,7.32
2022-11-13T16:09:38.157Z,7.32
2022-11-13T16:12:30.970Z,7.29
2022-11-13T16:16:11.566Z,7.27
2022-11-13T16:19:00.432Z,7.22
2022-11-13T16:21:50.442Z,7.20
2022-11-13T16:24:48.322Z,7.19
2022-11-13T16:27:36.269Z,7.20
2022-11-13T16:30:31.585Z,7.19
2022-11-13T16:33:20.038Z,7.17
2022-11-13T16:36:16.737Z,7.17
2022-11-13T16:39:06.345Z,7.15
2022-11-13T16:41:56.735Z,7.19
2022-11-13T16:44:48.196Z,7.24
2022-11-13T16:47:35.778Z,7.27
2022-11-13T16:50:31.201Z,7.27
2022-11-13T16:53:22.107Z,7.26
2022-11-13T16:56:16.370Z,7.27
2022-11-13T16:59:10.225Z,7.30
2022-11-13T17:02:01.174Z,7.30
2022-11-13T17:04:49.439Z,7.24
2022-11-13T17:07:40.051Z,7.17
2022-11-13T17:10:31.903Z,7.11
2022-11-13T17:13:22.632Z,7.08
2022-11-13T17:16:27.556Z,7.02
2022-11-13T17:19:21.877Z,6.97
2022-11-13T17:22:13.063Z,6.95
2022-11-13T17:24:59.995Z,6.91
2022-11-13T17:27:49.140Z,6.88
2022-11-13T17:30:37.523Z,6.85
2022-11-13T17:33:26.639Z,6.80
2022-11-13T17:36:19.364Z,6.78
2022-11-13T17:39:06.470Z,6.76
2022-11-13T17:41:54.542Z,6.75
2022-11-13T17:44:44.027Z,6.75
2022-11-13T17:47:44.094Z,6.76
2022-11-13T17:50:40.072Z,6.73
2022-11-13T17:53:28.161Z,6.66
2022-11-13T17:56:20.825Z,6.64
2022-11-13T17:59:11.383Z,6.64
2022-11-13T18:02:00.734Z,6.60
2022-11-13T18:04:50.656Z,6.61
2022-11-13T18:07:40.515Z,6.62
2022-11-13T18:10:28.642Z,6.64
2022-11-13T18:13:21.603Z,6.60
2022-11-13T18:16:21.969Z,6.55
2022-11-13T18:19:09.624Z,6.53
2022-11-13T18:22:00.914Z,6.52
2022-11-13T18:24:48.351Z,6.48
2022-11-13T18:27:37.570Z,6.43
2022-11-13T18:30:25.257Z,6.39
2022-11-13T18:33:14.363Z,6.36
2022-11-13T18:36:03.040Z,6.33
2022-11-13T18:38:54.180Z,6.32
2022-11-13T18:41:42.674Z,6.33
2022-11-13T18:44:46.545Z,6.34
2022-11-13T18:47:37.377Z,6.33
2022-11-13T18:50:24.334Z,6.32
2022-11-13T18:53:24.964Z,6.32
2022-11-13T18:56:15.076Z,6.30
2022-11-13T18:59:05.791Z,6.26
2022-11-13T19:01:52.824Z,6.25
2022-11-13T19:04:43.088Z,6.25
2022-11-13T19:07:29.873Z,6.24
2022-11-13T19:10:18.065Z,6.20
2022-11-13T19:13:05.897Z,6.16
2022-11-13T19:15:55.506Z,6.11
2022-11-13T19:18:47.265Z,6.07
2022-11-13T19:21:36.874Z,6.02
2022-11-13T19:24:25.058Z,5.99
2022-11-13T19:27:35.279Z,5.94
2022-11-13T19:30:29.242Z,5.90
2022-11-13T19:33:17.488Z,5.88
2022-11-13T19:36:15.190Z,5.85
2022-11-13T19:39:28.010Z,5.81
2022-11-13T19:42:18.714Z,5.73
2022-11-13T19:45:09.112Z,5.69
2022-11-13T19:47:57.682Z,5.66
2022-11-13T19:50:47.794Z,5.63
2022-11-13T19:53:38.345Z,5.60
2022-11-13T19:56:30.721Z,5.54
2022-11-13T19:59:22.867Z,5.48
2022-11-13T20:02:11.409Z,5.46
2022-11-13T20:05:02.108Z,5.40
2022-11-13T20:07:51.799Z,5.34
2022-11-13T20:10:39.329Z,5.27
2022-11-13T20:13:26.091Z,5.23
2022-11-13T20:16:17.549Z,5.19
2022-11-13T20:19:06.576Z,5.12
2022-11-13T20:21:54.073Z,5.04
2022-11-13T20:24:40.843Z,4.97
2022-11-13T20:27:31.273Z,4.91
2022-11-13T20:30:19.433Z,4.87
2022-11-13T20:33:06.752Z,4.83
2022-11-13T20:35:54.625Z,4.80
2022-11-13T20:38:47.890Z,4.77
2022-11-13T20:41:35.959Z,4.75
2022-11-13T20:44:22.952Z,4.73
2022-11-13T20:47:11.459Z,4.69
2022-11-13T20:49:57.944Z,4.69
2022-11-13T20:52:45.228Z,4.67
2022-11-13T20:55:32.501Z,4.61
2022-11-13T20:58:19.344Z,4.57
2022-11-13T21:01:18.172Z,4.54
2022-11-13T21:04:05.548Z,4.53
2022-11-13T21:06:58.344Z,4.51
2022-11-13T21:09:48.937Z,4.50
2022-11-13T21:12:37.970Z,4.47
2022-11-13T21:15:25.006Z,4.44
2022-11-13T21:18:11.928Z,4.42
2022-11-13T21:21:10.747Z,4.38
2022-11-13T21:23:59.080Z,4.35
2022-11-13T21:26:50.171Z,4.34
2022-11-13T21:29:38.659Z,4.31
2022-11-13T21:32:25.593Z,4.29
2022-11-13T21:35:18.566Z,4.25
2022-11-13T21:38:08.739Z,4.25
2022-11-13T21:41:23.443Z,4.25
2022-11-13T21:44:10.969Z,4.25
2022-11-13T21:47:00.036Z,4.24
2022-11-13T21:49:46.832Z,4.24
2022-11-13T21:52:33.667Z,4.23
2022-11-13T21:55:21.058Z,4.22
2022-11-13T21:58:09.170Z,4.20
2022-11-13T22:00:55.659Z,4.15
2022-11-13T22:03:42.575Z,4.12
2022-11-13T22:06:31.593Z,4.11
2022-11-13T22:09:22.104Z,4.12
2022-11-13T22:12:10.294Z,4.11
2022-11-13T22:14:57.033Z,4.09
2022-11-13T22:17:43.489Z,4.06
2022-11-13T22:20:31.620Z,4.05
2022-11-13T22:23:18.471Z,4.03
2022-11-13T22:26:15.935Z,4.02
2022-11-13T22:29:02.490Z,4.03
2022-11-13T22:31:49.129Z,4.04
2022-11-13T22:34:36.827Z,4.05
2022-11-13T22:37:23.362Z,4.04
2022-11-13T22:40:10.544Z,4.03
2022-11-13T22:42:57.094Z,4.02
2022-11-13T22:45:44.723Z,4.01
2022-11-13T22:48:32.248Z,3.98
2022-11-13T22:51:41.247Z,3.95
2022-11-13T22:54:28.889Z,3.94
2022-11-13T22:57:15.833Z,3.94
2022-11-13T23:00:09.518Z,3.94
2022-11-13T23:02:59.641Z,3.92
2022-11-13T23:05:46.431Z,3.89
2022-11-13T23:08:38.774Z,3.89
2022-11-13T23:11:40.193Z,3.90
2022-11-13T23:14:27.431Z,3.92
2022-11-13T23:17:14.292Z,3.93
2022-11-13T23:20:00.977Z,3.93
2022-11-13T23:22:47.717Z,3.93
2022-11-13T23:25:35.753Z,3.94
2022-11-13T23:28:22.939Z,3.95
2022-11-13T23:31:09.916Z,3.94
2022-11-13T23:33:56.838Z,3.95
2022-11-13T23:36:44.176Z,3.94
2022-11-13T23:39:31.315Z,3.93
2022-11-13T23:42:39.185Z,3.92
2022-11-13T23:45:25.989Z,3.91
2022-11-13T23:48:13.020Z,3.90
2022-11-13T23:51:03.442Z,3.90
2022-11-13T23:53:51.015Z,3.91
2022-11-13T23:56:38.436Z,3.92
2022-11-13T23:59:27.142Z,3.93
